Time;durP1;ratioP1;P1;durP2;ratioP2;P2;SDS_P1;SDS_P2;PMS_P1;PMS_P2;Temp;Humidity;BMP_temperature;BMP_pressure;BME280_temperature;BME280_humidity;BME280_pressure;Samples;Min_cycle;Max_cycle;Signal;HPM_P1;HPM_P2
2021/12/06 00:01:06;0.00;0.00;0.62;0.00;0.00;0.62;2.60;1.60;;;21.70;28.00;;;;;;2261495;61;20781;-62
2021/12/06 00:03:58;0.00;0.00;0.62;0.00;0.00;0.62;3.23;2.20;;;21.70;28.00;;;;;;2261589;61;20405;-60
2021/12/06 00:06:46;0.00;0.00;0.62;0.00;0.00;0.62;2.90;2.20;;;21.70;28.00;;;;;;2261401;61;20377;-62
2021/12/06 00:09:32;0.00;0.00;0.62;0.00;0.00;0.62;3.20;1.70;;;21.70;28.00;;;;;;2261208;61;20385;-62
2021/12/06 00:12:18;0.00;0.00;0.62;0.00;0.00;0.62;2.10;1.50;;;21.70;28.00;;;;;;2261470;61;20369;-61
2021/12/06 00:15:05;0.00;0.00;0.62;0.00;0.00;0.62;2.40;1.73;;;21.70;28.00;;;;;;2261534;61;20485;-61
2021/12/06 00:17:49;0.00;0.00;0.62;0.00;0.00;0.62;2.70;2.10;;;21.70;28.00;;;;;;2263465;61;20420;-61
2021/12/06 00:20:34;0.00;0.00;0.62;0.00;0.00;0.62;2.37;1.90;;;21.70;28.00;;;;;;2265221;61;20633;-61
2021/12/06 00:23:18;0.00;0.00;0.62;0.00;0.00;0.62;2.27;2.03;;;21.70;28.00;;;;;;2265428;61;20717;-61
2021/12/06 00:26:05;0.00;0.00;0.62;0.00;0.00;0.62;2.30;1.87;;;21.70;28.00;;;;;;2265437;61;20357;-61
2021/12/06 00:28:57;0.00;0.00;0.62;0.00;0.00;0.62;2.97;2.07;;;21.70;28.00;;;;;;2265174;61;20384;-61
2021/12/06 00:31:42;0.00;0.00;0.62;0.00;0.00;0.62;3.53;1.93;;;21.70;28.00;;;;;;2265227;61;20357;-61
2021/12/06 00:34:32;0.00;0.00;0.62;0.00;0.00;0.62;3.13;2.23;;;21.70;28.00;;;;;;2265513;61;20622;-61
2021/12/06 00:37:20;0.00;0.00;0.62;0.00;0.00;0.62;2.53;1.83;;;21.70;28.00;;;;;;2265484;61;20428;-61
2021/12/06 00:40:07;0.00;0.00;0.62;0.00;0.00;0.62;2.50;1.80;;;21.70;28.00;;;;;;2262199;61;20380;-61
2021/12/06 00:42:52;0.00;0.00;0.62;0.00;0.00;0.62;2.30;1.80;;;21.70;28.00;;;;;;2264861;61;20396;-61
2021/12/06 00:45:39;0.00;0.00;0.62;0.00;0.00;0.62;2.50;1.70;;;21.70;28.00;;;;;;2264767;61;20353;-61
2021/12/06 00:48:23;0.00;0.00;0.62;0.00;0.00;0.62;2.93;1.70;;;21.70;28.00;;;;;;2265219;61;20419;-61
2021/12/06 00:51:08;0.00;0.00;0.62;0.00;0.00;0.62;4.07;2.30;;;21.70;28.00;;;;;;2265358;61;20415;-61
2021/12/06 00:53:54;0.00;0.00;0.62;0.00;0.00;0.62;2.50;1.90;;;21.70;28.00;;;;;;2265043;61;20693;-61
2021/12/06 00:56:39;0.00;0.00;0.62;0.00;0.00;0.62;3.03;2.10;;;21.70;28.00;;;;;;2265539;61;20380;-61
2021/12/06 00:59:23;0.00;0.00;0.62;0.00;0.00;0.62;2.40;1.80;;;21.80;28.10;;;;;;2265325;61;20361;-61
2021/12/06 01:02:12;0.00;0.00;0.62;0.00;0.00;0.62;2.37;2.00;;;21.80;28.20;;;;;;2262361;61;20403;-61
2021/12/06 01:04:57;0.00;0.00;0.62;0.00;0.00;0.62;5.03;2.00;;;21.70;28.10;;;;;;2262095;61;20729;-61
2021/12/06 01:07:42;0.00;0.00;0.62;0.00;0.00;0.62;2.60;1.90;;;21.70;28.00;;;;;;2264532;61;20372;-61
2021/12/06 01:10:28;0.00;0.00;0.62;0.00;0.00;0.62;2.40;2.20;;;21.70;28.00;;;;;;2264413;61;20780;-61
2021/12/06 01:13:14;0.00;0.00;0.62;0.00;0.00;0.62;2.97;2.20;;;21.70;28.00;;;;;;2264951;61;20392;-61
2021/12/06 01:16:00;0.00;0.00;0.62;0.00;0.00;0.62;4.00;2.07;;;21.70;28.10;;;;;;2264924;61;20361;-61
2021/12/06 01:18:46;0.00;0.00;0.62;0.00;0.00;0.62;3.43;2.10;;;21.70;28.00;;;;;;2261685;61;20362;-61
2021/12/06 01:21:46;0.00;0.00;0.62;0.00;0.00;0.62;2.60;2.03;;;21.80;28.20;;;;;;2262008;61;20393;-61
2021/12/06 01:24:39;0.00;0.00;0.62;0.00;0.00;0.62;2.80;2.23;;;21.80;28.10;;;;;;2265807;61;20371;-61
2021/12/06 01:27:40;0.00;0.00;0.62;0.00;0.00;0.62;2.70;2.20;;;21.80;28.10;;;;;;2262111;61;20372;-62
2021/12/06 01:30:49;0.00;0.00;0.62;0.00;0.00;0.62;2.30;2.10;;;21.80;28.10;;;;;;2259491;61;20388;-59
2021/12/06 01:34:04;0.00;0.00;0.62;0.00;0.00;0.62;2.93;2.33;;;21.80;28.20;;;;;;2262414;61;20368;-61
2021/12/06 01:39:48;0.00;0.00;0.62;0.00;0.00;0.62;2.53;1.90;;;21.80;28.20;;;;;;2258863;61;20477;-61
2021/12/06 01:42:33;0.00;0.00;0.62;0.00;0.00;0.62;3.27;2.20;;;21.80;28.20;;;;;;2258614;61;20364;-61
2021/12/06 01:45:20;0.00;0.00;0.62;0.00;0.00;0.62;3.20;2.00;;;21.80;28.20;;;;;;2263982;58;20345;-62
2021/12/06 01:49:01;0.00;0.00;0.62;0.00;0.00;0.62;2.10;1.90;;;21.70;28.10;;;;;;2265405;61;20444;-62
2021/12/06 01:51:49;0.00;0.00;0.62;0.00;0.00;0.62;4.57;3.80;;;21.80;28.10;;;;;;2258195;61;20401;-61
2021/12/06 01:54:34;0.00;0.00;0.62;0.00;0.00;0.62;6.20;4.10;;;21.80;28.10;;;;;;2265044;61;20772;-63
2021/12/06 01:57:21;0.00;0.00;0.62;0.00;0.00;0.62;5.80;4.97;;;21.80;28.00;;;;;;2264431;61;20400;-61
2021/12/06 02:00:10;0.00;0.00;0.62;0.00;0.00;0.62;4.70;4.20;;;21.80;27.90;;;;;;2262476;61;20393;-61
2021/12/06 02:03:00;0.00;0.00;0.62;0.00;0.00;0.62;5.50;4.27;;;21.80;27.90;;;;;;2266007;61;20419;-61
2021/12/06 02:05:51;0.00;0.00;0.62;0.00;0.00;0.62;6.07;4.43;;;21.80;27.90;;;;;;2262591;61;20476;-61
2021/12/06 02:08:44;0.00;0.00;0.62;0.00;0.00;0.62;5.87;4.90;;;21.80;27.90;;;;;;2262996;61;20377;-60
2021/12/06 02:11:32;0.00;0.00;0.62;0.00;0.00;0.62;6.77;5.50;;;21.70;27.80;;;;;;2262718;61;20750;-60
2021/12/06 02:17:25;0.00;0.00;0.62;0.00;0.00;0.62;13.50;9.87;;;21.70;27.60;;;;;;2262638;61;20789;-60
2021/12/06 02:20:22;0.00;0.00;0.62;0.00;0.00;0.62;12.10;9.53;;;21.70;27.50;;;;;;2262518;61;20384;-59
2021/12/06 02:23:08;0.00;0.00;0.62;0.00;0.00;0.62;11.33;9.57;;;21.70;27.40;;;;;;2262576;61;20491;-60
2021/12/06 02:25:53;0.00;0.00;0.62;0.00;0.00;0.62;10.77;9.53;;;21.70;27.40;;;;;;2265903;61;20721;-60
2021/12/06 02:28:37;0.00;0.00;0.62;0.00;0.00;0.62;12.60;9.60;;;21.70;27.40;;;;;;2262200;61;20357;-60
2021/12/06 02:31:25;0.00;0.00;0.62;0.00;0.00;0.62;11.07;9.00;;;21.70;27.40;;;;;;2265955;61;20612;-60
2021/12/06 02:34:10;0.00;0.00;0.62;0.00;0.00;0.62;10.70;9.17;;;21.70;27.40;;;;;;2265678;61;20411;-60
2021/12/06 02:36:56;0.00;0.00;0.62;0.00;0.00;0.62;11.03;8.90;;;21.60;27.30;;;;;;2265597;61;20779;-60
2021/12/06 02:39:42;0.00;0.00;0.62;0.00;0.00;0.62;10.13;8.90;;;21.60;27.30;;;;;;2265784;61;20761;-60
2021/12/06 02:42:27;0.00;0.00;0.62;0.00;0.00;0.62;12.90;10.67;;;21.60;27.30;;;;;;2262622;61;20431;-60
2021/12/06 02:45:15;0.00;0.00;0.62;0.00;0.00;0.62;10.93;9.73;;;21.60;27.30;;;;;;2265600;61;20404;-60
2021/12/06 02:48:05;0.00;0.00;0.62;0.00;0.00;0.62;11.10;9.83;;;21.60;27.20;;;;;;2265700;61;20392;-60
2021/12/06 02:50:58;0.00;0.00;0.62;0.00;0.00;0.62;11.60;9.33;;;21.60;27.20;;;;;;2262184;61;20377;-60
2021/12/06 02:53:44;0.00;0.00;0.62;0.00;0.00;0.62;13.20;10.50;;;21.50;27.10;;;;;;2265731;61;20420;-60
2021/12/06 02:56:34;0.00;0.00;0.62;0.00;0.00;0.62;15.20;10.77;;;21.50;27.10;;;;;;2265779;61;20593;-60
2021/12/06 02:59:23;0.00;0.00;0.62;0.00;0.00;0.62;11.67;9.67;;;21.50;27.10;;;;;;2262166;61;20381;-61
2021/12/06 03:02:11;0.00;0.00;0.62;0.00;0.00;0.62;14.00;10.50;;;21.50;27.00;;;;;;2262689;61;20380;-60
2021/12/06 03:04:57;0.00;0.00;0.62;0.00;0.00;0.62;12.60;10.60;;;21.50;27.00;;;;;;2262454;61;20361;-61
2021/12/06 03:07:46;0.00;0.00;0.62;0.00;0.00;0.62;11.17;9.97;;;21.50;27.00;;;;;;2262242;61;20361;-61
2021/12/06 03:10:31;0.00;0.00;0.62;0.00;0.00;0.62;13.17;10.00;;;21.40;26.90;;;;;;2262248;61;20689;-61
2021/12/06 03:13:17;0.00;0.00;0.62;0.00;0.00;0.62;13.90;10.60;;;21.40;26.90;;;;;;2262265;61;20361;-61
2021/12/06 03:16:03;0.00;0.00;0.62;0.00;0.00;0.62;11.30;9.20;;;21.40;26.90;;;;;;2265748;61;20354;-60
2021/12/06 03:18:50;0.00;0.00;0.62;0.00;0.00;0.62;11.97;9.90;;;21.40;27.00;;;;;;2265460;61;20412;-60
2021/12/06 03:21:37;0.00;0.00;0.62;0.00;0.00;0.62;12.30;9.63;;;21.40;27.00;;;;;;2262151;61;20538;-60
2021/12/06 03:24:22;0.00;0.00;0.62;0.00;0.00;0.62;12.60;9.80;;;21.40;27.00;;;;;;2265853;61;20376;-61
2021/12/06 03:27:06;0.00;0.00;0.62;0.00;0.00;0.62;14.07;10.60;;;21.30;26.90;;;;;;2262333;61;20358;-60
2021/12/06 03:29:53;0.00;0.00;0.62;0.00;0.00;0.62;11.57;9.47;;;21.30;26.90;;;;;;2265195;61;20384;-60
2021/12/06 03:32:38;0.00;0.00;0.62;0.00;0.00;0.62;12.23;9.87;;;21.30;26.90;;;;;;2262461;61;20504;-60
2021/12/06 03:35:25;0.00;0.00;0.62;0.00;0.00;0.62;11.30;9.60;;;21.30;26.90;;;;;;2265324;61;20723;-60
2021/12/06 03:38:11;0.00;0.00;0.62;0.00;0.00;0.62;12.97;9.90;;;21.30;26.90;;;;;;2262658;61;20461;-60
2021/12/06 03:40:56;0.00;0.00;0.62;0.00;0.00;0.62;10.63;8.90;;;21.30;27.00;;;;;;2262334;61;20381;-60
2021/12/06 03:43:42;0.00;0.00;0.62;0.00;0.00;0.62;11.00;9.87;;;21.30;26.90;;;;;;2262207;61;20356;-60
2021/12/06 03:46:31;0.00;0.00;0.62;0.00;0.00;0.62;11.87;9.37;;;21.20;26.80;;;;;;2262604;61;20420;-60
2021/12/06 03:49:17;0.00;0.00;0.62;0.00;0.00;0.62;9.97;8.20;;;21.20;26.90;;;;;;2262061;61;20403;-60
2021/12/06 03:52:05;0.00;0.00;0.62;0.00;0.00;0.62;10.37;8.73;;;21.20;26.90;;;;;;2262325;61;20545;-60
2021/12/06 03:54:50;0.00;0.00;0.62;0.00;0.00;0.62;13.40;9.80;;;21.20;26.90;;;;;;2262282;61;20484;-61
2021/12/06 03:57:36;0.00;0.00;0.62;0.00;0.00;0.62;13.07;10.30;;;21.20;26.80;;;;;;2262215;61;20432;-60
2021/12/06 04:00:22;0.00;0.00;0.62;0.00;0.00;0.62;12.60;10.60;;;21.20;26.80;;;;;;2262470;61;20626;-61
2021/12/06 04:03:15;0.00;0.00;0.62;0.00;0.00;0.62;12.77;10.00;;;21.10;26.70;;;;;;2262225;61;20358;-60
2021/12/06 04:06:02;0.00;0.00;0.62;0.00;0.00;0.62;11.70;9.57;;;21.10;26.80;;;;;;2265202;61;20365;-61
2021/12/06 04:08:49;0.00;0.00;0.62;0.00;0.00;0.62;13.10;10.30;;;21.10;26.80;;;;;;2262313;61;20407;-60
2021/12/06 04:11:36;0.00;0.00;0.62;0.00;0.00;0.62;13.27;11.00;;;21.10;26.80;;;;;;2262250;61;20713;-61
2021/12/06 04:14:21;0.00;0.00;0.62;0.00;0.00;0.62;14.00;10.40;;;21.00;26.70;;;;;;2262245;61;20423;-60
2021/12/06 04:17:06;0.00;0.00;0.62;0.00;0.00;0.62;14.40;10.77;;;21.00;26.70;;;;;;2265216;61;20753;-60
2021/12/06 04:19:52;0.00;0.00;0.62;0.00;0.00;0.62;12.60;9.70;;;21.00;26.70;;;;;;2261911;61;20435;-60
2021/12/06 04:22:40;0.00;0.00;0.62;0.00;0.00;0.62;10.97;9.87;;;21.00;26.70;;;;;;2262483;61;20382;-60
2021/12/06 04:25:25;0.00;0.00;0.62;0.00;0.00;0.62;11.97;9.83;;;21.00;26.70;;;;;;2262148;61;20380;-60
2021/12/06 04:28:14;0.00;0.00;0.62;0.00;0.00;0.62;13.70;9.80;;;21.00;26.70;;;;;;2261969;61;20574;-60
2021/12/06 04:31:01;0.00;0.00;0.62;0.00;0.00;0.62;16.77;11.80;;;21.00;26.70;;;;;;2262351;61;20404;-60
2021/12/06 04:33:48;0.00;0.00;0.62;0.00;0.00;0.62;10.83;9.27;;;20.90;26.60;;;;;;2262172;61;20716;-59
2021/12/06 04:36:34;0.00;0.00;0.62;0.00;0.00;0.62;12.63;9.33;;;20.90;26.60;;;;;;2262174;61;20364;-61
2021/12/06 04:39:22;0.00;0.00;0.62;0.00;0.00;0.62;13.10;10.23;;;20.90;26.60;;;;;;2261879;61;20357;-60
2021/12/06 04:42:09;0.00;0.00;0.62;0.00;0.00;0.62;12.90;9.60;;;20.90;26.60;;;;;;2261889;61;20388;-60
2021/12/06 04:44:54;0.00;0.00;0.62;0.00;0.00;0.62;13.80;10.70;;;20.90;26.60;;;;;;2265386;61;20364;-61
2021/12/06 04:47:40;0.00;0.00;0.62;0.00;0.00;0.62;13.70;10.50;;;20.90;26.60;;;;;;2265153;61;20770;-60
2021/12/06 04:50:30;0.00;0.00;0.62;0.00;0.00;0.62;11.63;9.40;;;20.90;26.60;;;;;;2261940;61;20744;-61
2021/12/06 04:53:21;0.00;0.00;0.62;0.00;0.00;0.62;15.23;9.83;;;20.80;26.50;;;;;;2262129;61;20419;-60
2021/12/06 04:56:16;0.00;0.00;0.62;0.00;0.00;0.62;11.97;8.83;;;20.80;26.50;;;;;;2262090;61;20476;-59
2021/12/06 04:59:10;0.00;0.00;0.62;0.00;0.00;0.62;10.73;9.30;;;20.80;27.00;;;;;;2262436;61;20388;-60
2021/12/06 05:02:03;0.00;0.00;0.62;0.00;0.00;0.62;12.30;10.10;;;20.80;26.50;;;;;;2262084;61;20680;-59
2021/12/06 05:04:55;0.00;0.00;0.62;0.00;0.00;0.62;10.80;9.20;;;20.80;26.50;;;;;;2265184;61;20380;-60
2021/12/06 05:07:45;0.00;0.00;0.62;0.00;0.00;0.62;13.47;10.27;;;20.80;26.50;;;;;;2262168;61;20396;-60
2021/12/06 05:10:32;0.00;0.00;0.62;0.00;0.00;0.62;11.93;10.30;;;20.70;26.50;;;;;;2261612;61;20392;-60
2021/12/06 05:13:17;0.00;0.00;0.62;0.00;0.00;0.62;12.60;10.27;;;20.70;26.40;;;;;;2261852;61;20236;-60
2021/12/06 05:16:03;0.00;0.00;0.62;0.00;0.00;0.62;12.30;9.37;;;20.80;26.50;;;;;;2265545;61;20404;-60
2021/12/06 05:18:48;0.00;0.00;0.62;0.00;0.00;0.62;13.00;10.20;;;20.70;26.40;;;;;;2261515;61;20432;-60
2021/12/06 05:21:35;0.00;0.00;0.62;0.00;0.00;0.62;11.30;8.83;;;20.80;26.50;;;;;;2262274;61;20788;-60
2021/12/06 05:24:21;0.00;0.00;0.62;0.00;0.00;0.62;11.17;9.23;;;20.70;26.40;;;;;;2262052;61;20709;-60
2021/12/06 05:27:09;0.00;0.00;0.62;0.00;0.00;0.62;11.43;9.10;;;20.70;26.40;;;;;;2261704;61;20361;-58
2021/12/06 05:30:01;0.00;0.00;0.62;0.00;0.00;0.62;11.77;9.47;;;20.70;26.40;;;;;;2262063;61;20516;-60
2021/12/06 05:32:46;0.00;0.00;0.62;0.00;0.00;0.62;11.83;9.57;;;20.70;26.40;;;;;;2261963;61;20358;-60
2021/12/06 05:35:31;0.00;0.00;0.62;0.00;0.00;0.62;11.53;9.00;;;20.70;26.50;;;;;;2265217;61;20400;-60
2021/12/06 05:38:16;0.00;0.00;0.62;0.00;0.00;0.62;12.30;8.70;;;20.60;26.40;;;;;;2265452;61;20417;-61
2021/12/06 05:41:01;0.00;0.00;0.62;0.00;0.00;0.62;13.13;9.20;;;20.60;26.40;;;;;;2264808;61;20477;-59
2021/12/06 05:43:48;0.00;0.00;0.62;0.00;0.00;0.62;11.77;9.03;;;20.70;26.40;;;;;;2265366;61;20357;-59
2021/12/06 05:46:33;0.00;0.00;0.62;0.00;0.00;0.62;12.10;9.07;;;20.60;26.40;;;;;;2265021;61;20626;-60
2021/12/06 05:49:17;0.00;0.00;0.62;0.00;0.00;0.62;11.77;9.47;;;20.60;26.40;;;;;;2261538;61;20391;-60
2021/12/06 05:52:03;0.00;0.00;0.62;0.00;0.00;0.62;10.73;8.27;;;20.60;26.40;;;;;;2265469;61;20708;-60
2021/12/06 05:54:49;0.00;0.00;0.62;0.00;0.00;0.62;12.10;9.20;;;20.60;26.40;;;;;;2265075;61;20407;-60
2021/12/06 05:57:33;0.00;0.00;0.62;0.00;0.00;0.62;10.63;9.33;;;20.60;26.40;;;;;;2265085;61;20434;-60
2021/12/06 06:00:23;0.00;0.00;0.62;0.00;0.00;0.62;11.77;8.57;;;20.50;26.30;;;;;;2265252;61;20380;-60
2021/12/06 06:03:10;0.00;0.00;0.62;0.00;0.00;0.62;13.17;8.60;;;20.50;26.30;;;;;;2264744;61;20365;-60
2021/12/06 06:05:55;0.00;0.00;0.62;0.00;0.00;0.62;12.03;9.07;;;20.50;26.30;;;;;;2265269;61;20369;-60
2021/12/06 06:08:40;0.00;0.00;0.62;0.00;0.00;0.62;9.83;8.33;;;20.50;26.30;;;;;;2264925;61;20426;-60
2021/12/06 06:11:25;0.00;0.00;0.62;0.00;0.00;0.62;12.80;9.13;;;20.50;26.30;;;;;;2265012;61;20431;-60
2021/12/06 06:14:10;0.00;0.00;0.62;0.00;0.00;0.62;11.10;9.73;;;20.50;26.30;;;;;;2265287;61;20600;-60
2021/12/06 06:17:03;0.00;0.00;0.62;0.00;0.00;0.62;13.37;9.43;;;20.50;26.20;;;;;;2264940;61;20863;-59
2021/12/06 06:19:54;0.00;0.00;0.62;0.00;0.00;0.62;10.53;8.73;;;20.40;26.20;;;;;;2264913;61;20376;-60
2021/12/06 06:22:38;0.00;0.00;0.62;0.00;0.00;0.62;12.97;10.23;;;20.50;26.20;;;;;;2265299;61;20377;-60
2021/12/06 06:25:23;0.00;0.00;0.62;0.00;0.00;0.62;12.23;9.30;;;20.40;26.20;;;;;;2262233;61;20364;-60
2021/12/06 06:28:08;0.00;0.00;0.62;0.00;0.00;0.62;13.83;9.67;;;20.40;26.20;;;;;;2265942;61;20404;-59
2021/12/06 06:30:53;0.00;0.00;0.62;0.00;0.00;0.62;12.20;9.17;;;20.40;26.20;;;;;;2265645;61;20381;-60
2021/12/06 06:33:39;0.00;0.00;0.62;0.00;0.00;0.62;12.60;10.00;;;20.40;26.20;;;;;;2265593;61;20354;-59
2021/12/06 06:36:24;0.00;0.00;0.62;0.00;0.00;0.62;15.13;10.77;;;20.40;26.20;;;;;;2266004;61;20365;-58
2021/12/06 06:39:10;0.00;0.00;0.62;0.00;0.00;0.62;12.60;8.57;;;20.40;26.20;;;;;;2265575;61;20381;-60
2021/12/06 06:41:55;0.00;0.00;0.62;0.00;0.00;0.62;12.47;9.20;;;20.40;26.20;;;;;;2265591;61;20354;-59
2021/12/06 06:44:39;0.00;0.00;0.62;0.00;0.00;0.62;12.20;9.30;;;20.40;26.20;;;;;;2265836;61;20732;-60
2021/12/06 06:47:24;0.00;0.00;0.62;0.00;0.00;0.62;15.27;11.40;;;20.40;26.20;;;;;;2265844;61;20418;-59
2021/12/06 06:50:11;0.00;0.00;0.62;0.00;0.00;0.62;14.80;10.20;;;20.30;26.10;;;;;;2265934;61;20752;-59
2021/12/06 06:52:56;0.00;0.00;0.62;0.00;0.00;0.62;11.27;9.10;;;20.30;26.10;;;;;;2265620;61;20725;-59
2021/12/06 06:55:40;0.00;0.00;0.62;0.00;0.00;0.62;14.60;10.40;;;20.30;26.20;;;;;;2265552;61;20371;-57
2021/12/06 06:58:25;0.00;0.00;0.62;0.00;0.00;0.62;12.37;10.37;;;20.30;26.10;;;;;;2265799;61;20568;-59
2021/12/06 07:01:09;0.00;0.00;0.62;0.00;0.00;0.62;15.90;11.00;;;20.30;26.10;;;;;;2265648;61;20412;-60
2021/12/06 07:03:54;0.00;0.00;0.62;0.00;0.00;0.62;14.47;10.73;;;20.30;26.20;;;;;;2265473;61;20578;-59
2021/12/06 07:06:40;0.00;0.00;0.62;0.00;0.00;0.62;12.60;9.43;;;20.30;26.20;;;;;;2265616;61;20345;-59
2021/12/06 07:09:24;0.00;0.00;0.62;0.00;0.00;0.62;12.30;9.60;;;20.30;26.20;;;;;;2265564;61;20365;-59
2021/12/06 07:12:16;0.00;0.00;0.62;0.00;0.00;0.62;14.43;10.60;;;20.30;26.20;;;;;;2266001;61;20725;-59
2021/12/06 07:15:01;0.00;0.00;0.62;0.00;0.00;0.62;12.47;9.90;;;20.30;26.20;;;;;;2265513;61;20425;-59
2021/12/06 07:17:46;0.00;0.00;0.62;0.00;0.00;0.62;13.50;10.57;;;20.30;26.20;;;;;;2265336;61;20415;-59
2021/12/06 07:20:32;0.00;0.00;0.62;0.00;0.00;0.62;10.50;9.40;;;20.30;26.20;;;;;;2265736;61;20389;-59
2021/12/06 07:23:18;0.00;0.00;0.62;0.00;0.00;0.62;13.00;10.63;;;20.30;26.30;;;;;;2265509;61;20358;-60
2021/12/06 07:26:03;0.00;0.00;0.62;0.00;0.00;0.62;14.47;9.77;;;20.20;26.20;;;;;;2265311;61;20368;-60
2021/12/06 07:28:51;0.00;0.00;0.62;0.00;0.00;0.62;13.30;11.07;;;20.20;26.20;;;;;;2265715;61;20392;-60
2021/12/06 07:31:35;0.00;0.00;0.62;0.00;0.00;0.62;15.97;10.53;;;20.20;26.20;;;;;;2265640;61;20584;-60
2021/12/06 07:34:20;0.00;0.00;0.62;0.00;0.00;0.62;11.13;9.17;;;20.20;26.30;;;;;;2265751;61;20615;-59
2021/12/06 07:37:05;0.00;0.00;0.62;0.00;0.00;0.62;14.30;9.93;;;20.20;26.30;;;;;;2265662;61;20361;-60
2021/12/06 07:39:51;0.00;0.00;0.62;0.00;0.00;0.62;10.97;9.47;;;20.20;26.20;;;;;;2265099;61;20411;-62
2021/12/06 07:42:36;0.00;0.00;0.62;0.00;0.00;0.62;11.40;9.43;;;20.20;26.20;;;;;;2265744;61;20488;-62
2021/12/06 07:45:21;0.00;0.00;0.62;0.00;0.00;0.62;11.97;10.30;;;20.20;26.30;;;;;;2265464;61;20356;-61
2021/12/06 07:48:06;0.00;0.00;0.62;0.00;0.00;0.62;12.80;9.23;;;20.20;26.30;;;;;;2265194;61;20469;-59
2021/12/06 07:50:51;0.00;0.00;0.62;0.00;0.00;0.62;12.17;9.87;;;20.20;26.30;;;;;;2265740;61;20589;-60
2021/12/06 07:53:42;0.00;0.00;0.62;0.00;0.00;0.62;10.10;8.80;;;20.20;26.30;;;;;;2265392;61;20379;-61
2021/12/06 07:56:29;0.00;0.00;0.62;0.00;0.00;0.62;12.00;10.37;;;20.10;26.30;;;;;;2262498;61;20567;-61
2021/12/06 07:59:14;0.00;0.00;0.62;0.00;0.00;0.62;11.93;8.63;;;20.10;26.30;;;;;;2265443;61;20396;-61
2021/12/06 08:01:58;0.00;0.00;0.62;0.00;0.00;0.62;12.23;10.17;;;20.10;26.30;;;;;;2265026;61;20395;-61
2021/12/06 08:04:43;0.00;0.00;0.62;0.00;0.00;0.62;14.27;11.23;;;20.20;26.40;;;;;;2265791;61;20415;-62
2021/12/06 08:07:27;0.00;0.00;0.62;0.00;0.00;0.62;12.27;10.50;;;20.20;26.40;;;;;;2265284;61;20400;-62
2021/12/06 08:10:12;0.00;0.00;0.62;0.00;0.00;0.62;13.50;10.07;;;20.20;26.40;;;;;;2265075;61;20396;-59
2021/12/06 08:12:59;0.00;0.00;0.62;0.00;0.00;0.62;11.40;9.70;;;20.10;26.30;;;;;;2265657;61;20365;-60
2021/12/06 08:15:45;0.00;0.00;0.62;0.00;0.00;0.62;11.90;10.00;;;20.10;26.30;;;;;;2265004;61;20365;-61
2021/12/06 08:18:30;0.00;0.00;0.62;0.00;0.00;0.62;10.63;9.53;;;20.20;26.40;;;;;;2265239;61;20795;-60
2021/12/06 08:21:17;0.00;0.00;0.62;0.00;0.00;0.62;12.10;10.60;;;20.20;26.40;;;;;;2265259;61;20595;-60
2021/12/06 08:24:03;0.00;0.00;0.62;0.00;0.00;0.62;13.77;11.03;;;20.10;26.30;;;;;;2265157;61;20480;-58
2021/12/06 08:26:48;0.00;0.00;0.62;0.00;0.00;0.62;13.53;10.43;;;20.20;26.40;;;;;;2263731;61;20360;-59
2021/12/06 08:29:35;0.00;0.00;0.62;0.00;0.00;0.62;10.90;9.47;;;20.20;26.40;;;;;;2264174;61;20413;-59
2021/12/06 08:32:21;0.00;0.00;0.62;0.00;0.00;0.62;13.10;10.50;;;20.10;26.30;;;;;;2265065;61;20369;-62
2021/12/06 08:35:07;0.00;0.00;0.62;0.00;0.00;0.62;12.97;9.93;;;20.20;26.30;;;;;;2265619;61;20710;-62
2021/12/06 08:37:53;0.00;0.00;0.62;0.00;0.00;0.62;12.20;10.90;;;20.20;26.30;;;;;;2265207;61;20384;-64
2021/12/06 08:40:41;0.00;0.00;0.62;0.00;0.00;0.62;14.80;10.80;;;20.10;26.30;;;;;;2265069;61;20470;-61
2021/12/06 08:43:26;0.00;0.00;0.62;0.00;0.00;0.62;13.40;11.97;;;20.20;26.30;;;;;;2264970;61;20630;-60
2021/12/06 08:46:19;0.00;0.00;0.62;0.00;0.00;0.62;13.10;10.67;;;20.10;26.20;;;;;;2265105;61;20615;-62
2021/12/06 08:49:06;0.00;0.00;0.62;0.00;0.00;0.62;14.17;11.17;;;20.10;26.20;;;;;;2262148;61;20361;-61
2021/12/06 08:51:55;0.00;0.00;0.62;0.00;0.00;0.62;15.10;11.30;;;20.10;26.20;;;;;;2265286;61;20353;-62
2021/12/06 08:54:40;0.00;0.00;0.62;0.00;0.00;0.62;12.67;10.83;;;20.10;26.20;;;;;;2264984;61;20408;-60
2021/12/06 08:57:25;0.00;0.00;0.62;0.00;0.00;0.62;11.67;10.47;;;20.10;26.20;;;;;;2265140;61;20385;-59
2021/12/06 09:00:17;0.00;0.00;0.62;0.00;0.00;0.62;13.77;10.40;;;20.10;26.10;;;;;;2265250;61;20412;-62
2021/12/06 09:03:04;0.00;0.00;0.62;0.00;0.00;0.62;14.40;10.97;;;20.10;26.00;;;;;;2265104;61;20357;-60
2021/12/06 09:05:53;0.00;0.00;0.62;0.00;0.00;0.62;11.00;9.27;;;20.10;26.10;;;;;;2265183;61;20366;-61
2021/12/06 09:08:41;0.00;0.00;0.62;0.00;0.00;0.62;11.40;9.03;;;20.10;26.20;;;;;;2264724;61;20451;-61
2021/12/06 09:11:25;0.00;0.00;0.62;0.00;0.00;0.62;13.30;9.63;;;20.10;26.20;;;;;;2265195;61;20396;-60
2021/12/06 09:14:11;0.00;0.00;0.62;0.00;0.00;0.62;12.40;10.23;;;20.20;26.30;;;;;;2265147;61;20364;-59
2021/12/06 09:16:56;0.00;0.00;0.62;0.00;0.00;0.62;11.33;8.87;;;20.10;26.30;;;;;;2265012;61;20357;-60
2021/12/06 09:19:42;0.00;0.00;0.62;0.00;0.00;0.62;11.13;9.10;;;20.20;26.40;;;;;;2265133;61;20619;-58
2021/12/06 09:22:27;0.00;0.00;0.62;0.00;0.00;0.62;9.20;7.50;;;20.20;26.40;;;;;;2265193;61;20365;-61
2021/12/06 09:25:12;0.00;0.00;0.62;0.00;0.00;0.62;9.07;8.03;;;20.20;26.50;;;;;;2265008;61;20357;-60
2021/12/06 09:27:56;0.00;0.00;0.62;0.00;0.00;0.62;9.37;8.23;;;20.10;26.50;;;;;;2264949;61;20720;-59
2021/12/06 09:30:42;0.00;0.00;0.62;0.00;0.00;0.62;9.63;8.30;;;20.20;26.50;;;;;;2264888;61;20435;-61
2021/12/06 09:33:28;0.00;0.00;0.62;0.00;0.00;0.62;10.90;8.53;;;20.20;26.60;;;;;;2265190;61;20433;-60
2021/12/06 09:36:15;0.00;0.00;0.62;0.00;0.00;0.62;9.87;8.20;;;20.20;26.50;;;;;;2265172;61;20356;-59
2021/12/06 09:39:00;0.00;0.00;0.62;0.00;0.00;0.62;9.93;7.80;;;20.20;26.50;;;;;;2264791;61;20384;-59
2021/12/06 09:41:45;0.00;0.00;0.62;0.00;0.00;0.62;9.47;8.07;;;20.20;26.40;;;;;;2265159;61;20353;-62
2021/12/06 09:44:30;0.00;0.00;0.62;0.00;0.00;0.62;9.00;7.37;;;20.20;26.40;;;;;;2265268;61;20393;-59
2021/12/06 09:47:15;0.00;0.00;0.62;0.00;0.00;0.62;8.60;7.43;;;20.20;26.40;;;;;;2264745;61;20450;-60
2021/12/06 09:50:00;0.00;0.00;0.62;0.00;0.00;0.62;9.60;7.40;;;20.30;26.50;;;;;;2264924;61;20588;-59
2021/12/06 09:52:46;0.00;0.00;0.62;0.00;0.00;0.62;9.53;7.70;;;20.30;26.50;;;;;;2264450;61;20364;-59
2021/12/06 09:55:32;0.00;0.00;0.62;0.00;0.00;0.62;11.20;7.80;;;20.30;26.50;;;;;;2264861;61;20364;-60
2021/12/06 09:58:19;0.00;0.00;0.62;0.00;0.00;0.62;8.93;7.20;;;20.30;26.50;;;;;;2265450;61;20373;-59
2021/12/06 10:01:08;0.00;0.00;0.62;0.00;0.00;0.62;7.60;6.37;;;20.30;26.60;;;;;;2265445;61;20384;-59
2021/12/06 10:03:58;0.00;0.00;0.62;0.00;0.00;0.62;9.73;7.37;;;20.30;26.50;;;;;;2265865;61;20385;-58
2021/12/06 10:06:45;0.00;0.00;0.62;0.00;0.00;0.62;8.40;7.60;;;20.30;26.50;;;;;;2265856;61;20361;-59
2021/12/06 10:09:31;0.00;0.00;0.62;0.00;0.00;0.62;8.27;7.10;;;20.30;26.60;;;;;;2265317;61;20614;-60
2021/12/06 10:12:17;0.00;0.00;0.62;0.00;0.00;0.62;8.10;7.30;;;20.30;26.60;;;;;;2265446;61;20439;-61
2021/12/06 10:15:04;0.00;0.00;0.62;0.00;0.00;0.62;8.20;6.67;;;20.30;26.60;;;;;;2265431;61;20376;-61
2021/12/06 10:17:49;0.00;0.00;0.62;0.00;0.00;0.62;9.80;7.60;;;20.30;26.60;;;;;;2265896;61;20635;-61
2021/12/06 10:20:33;0.00;0.00;0.62;0.00;0.00;0.62;7.77;6.97;;;20.30;26.60;;;;;;2265568;61;20411;-62
2021/12/06 10:23:20;0.00;0.00;0.62;0.00;0.00;0.62;10.23;8.03;;;20.30;26.50;;;;;;2265399;61;20364;-63
2021/12/06 10:26:08;0.00;0.00;0.62;0.00;0.00;0.62;8.30;7.43;;;20.30;26.50;;;;;;2265908;61;20377;-60
2021/12/06 10:28:58;0.00;0.00;0.62;0.00;0.00;0.62;8.30;7.07;;;20.30;26.50;;;;;;2265401;61;20361;-62
2021/12/06 10:31:43;0.00;0.00;0.62;0.00;0.00;0.62;10.30;7.70;;;20.30;26.50;;;;;;2265658;61;20434;-61
2021/12/06 10:34:29;0.00;0.00;0.62;0.00;0.00;0.62;8.40;7.47;;;20.30;26.40;;;;;;2265622;61;20384;-64
2021/12/06 10:37:30;0.00;0.00;0.62;0.00;0.00;0.62;8.57;7.10;;;20.30;26.40;;;;;;2265337;61;20728;-62
2021/12/06 10:40:19;0.00;0.00;0.62;0.00;0.00;0.62;8.23;6.37;;;20.30;26.40;;;;;;2265750;61;20431;-60
2021/12/06 10:43:08;0.00;0.00;0.62;0.00;0.00;0.62;10.60;6.33;;;20.30;26.50;;;;;;2265536;61;20353;-62
2021/12/06 10:45:56;0.00;0.00;0.62;0.00;0.00;0.62;12.03;6.97;;;20.40;26.60;;;;;;2265374;61;20737;-65
2021/12/06 10:48:40;0.00;0.00;0.62;0.00;0.00;0.62;8.93;7.30;;;20.40;26.60;;;;;;2265885;61;20384;-61
2021/12/06 10:51:27;0.00;0.00;0.62;0.00;0.00;0.62;7.30;6.50;;;20.40;26.60;;;;;;2265501;61;20381;-58
2021/12/06 10:54:39;0.00;0.00;0.62;0.00;0.00;0.62;9.90;6.73;;;20.40;26.60;;;;;;2266234;61;20947;-60
2021/12/06 10:57:21;0.00;0.00;0.62;0.00;0.00;0.62;8.57;6.40;;;20.40;26.60;;;;;;2265544;61;20361;-62
2021/12/06 11:00:11;0.00;0.00;0.62;0.00;0.00;0.62;7.93;7.00;;;20.40;26.50;;;;;;2265259;61;20420;-62